createdAt,value
2017-12-11T00:00:09.462Z,0.00
2017-12-11T00:02:02.839Z,0.00
2017-12-11T00:03:02.790Z,0.00
2017-12-11T00:04:56.173Z,0.00
2017-12-11T00:05:56.118Z,0.00
2017-12-11T00:07:49.485Z,0.00
2017-12-11T00:08:49.442Z,0.00
2017-12-11T00:10:45.308Z,0.00
2017-12-11T00:11:45.269Z,0.00
2017-12-11T00:13:41.140Z,0.00
2017-12-11T00:14:41.091Z,0.00
2017-12-11T00:16:34.448Z,0.00
2017-12-11T00:17:34.401Z,0.00
2017-12-11T00:19:30.282Z,0.00
2017-12-11T00:20:30.243Z,0.00
2017-12-11T00:22:23.585Z,0.00
2017-12-11T00:23:23.544Z,0.00
2017-12-11T00:25:19.413Z,0.00
2017-12-11T00:26:19.370Z,0.00
2017-12-11T00:28:15.389Z,0.00
2017-12-11T00:29:15.194Z,0.00
2017-12-11T00:31:11.085Z,0.00
2017-12-11T00:32:11.051Z,0.00
2017-12-11T00:34:06.898Z,0.00
2017-12-11T00:35:06.862Z,0.00
2017-12-11T00:37:00.234Z,0.00
2017-12-11T00:38:00.191Z,0.00
2017-12-11T00:39:53.552Z,0.00
2017-12-11T00:40:53.510Z,0.00
2017-12-11T00:42:49.372Z,0.00
2017-12-11T00:43:49.327Z,0.00
2017-12-11T00:45:45.204Z,0.00
2017-12-11T00:46:45.149Z,0.00
2017-12-11T00:48:38.516Z,0.00
2017-12-11T00:49:38.471Z,0.00
2017-12-11T00:51:34.341Z,0.00
2017-12-11T00:52:34.293Z,0.00
2017-12-11T00:54:30.370Z,0.00
2017-12-11T00:55:30.326Z,0.00
2017-12-11T00:56:30.305Z,0.00
2017-12-11T00:57:30.276Z,0.00
2017-12-11T00:58:30.259Z,0.00
2017-12-11T00:59:30.228Z,0.00
2017-12-11T01:00:30.198Z,0.00
2017-12-11T01:01:30.176Z,0.00
2017-12-11T01:02:30.157Z,0.00
2017-12-11T01:03:30.126Z,0.00
2017-12-11T01:04:30.102Z,0.00
2017-12-11T01:05:30.080Z,0.00
2017-12-11T01:06:30.053Z,0.00
2017-12-11T01:07:30.033Z,0.00
2017-12-11T01:08:30.004Z,0.00
2017-12-11T01:09:29.981Z,0.00
2017-12-11T01:10:29.954Z,0.00
2017-12-11T01:11:29.926Z,0.00
2017-12-11T01:12:29.911Z,0.00
2017-12-11T01:13:29.876Z,0.00
2017-12-11T01:14:29.880Z,0.00
2017-12-11T01:15:29.837Z,0.00
2017-12-11T01:16:29.845Z,0.00
2017-12-11T01:17:29.776Z,0.00
2017-12-11T01:18:29.754Z,0.00
2017-12-11T01:19:29.731Z,0.00
2017-12-11T01:20:29.703Z,0.00
2017-12-11T01:21:29.680Z,0.00
2017-12-11T01:22:29.652Z,0.00
2017-12-11T01:23:29.636Z,0.00
2017-12-11T01:24:29.605Z,0.00
2017-12-11T01:25:29.594Z,0.00
2017-12-11T01:26:29.555Z,0.00
2017-12-11T01:27:29.533Z,0.00
2017-12-11T01:28:29.512Z,0.00
2017-12-11T01:29:29.478Z,0.00
2017-12-11T01:30:29.457Z,0.00
2017-12-11T01:31:29.430Z,0.00
2017-12-11T01:32:29.416Z,0.00
2017-12-11T01:33:29.378Z,0.00
2017-12-11T01:34:29.355Z,0.00
2017-12-11T01:35:29.332Z,0.00
2017-12-11T01:36:29.305Z,0.00
2017-12-11T01:37:29.282Z,0.00
2017-12-11T01:38:29.253Z,0.00
2017-12-11T01:39:29.232Z,0.00
2017-12-11T01:40:29.203Z,0.00
2017-12-11T01:41:29.178Z,0.00
2017-12-11T01:42:29.155Z,0.00
2017-12-11T01:43:29.130Z,0.00
2017-12-11T01:44:29.111Z,0.00
2017-12-11T01:45:29.086Z,0.00
2017-12-11T01:46:29.063Z,0.00
2017-12-11T01:47:29.036Z,0.00
2017-12-11T01:48:29.008Z,0.00
2017-12-11T01:49:28.982Z,0.00
2017-12-11T01:50:28.955Z,0.00
2017-12-11T01:51:28.930Z,0.00
2017-12-11T01:52:28.905Z,0.00
2017-12-11T01:53:28.920Z,0.00
2017-12-11T01:54:28.863Z,0.00
2017-12-11T01:55:28.833Z,0.00
2017-12-11T01:56:28.807Z,0.00
2017-12-11T01:57:28.782Z,0.00
2017-12-11T01:58:28.761Z,0.00
2017-12-11T01:59:28.740Z,0.00
2017-12-11T02:00:28.711Z,0.00
2017-12-11T02:01:28.694Z,0.00
2017-12-11T02:02:28.659Z,0.00
2017-12-11T02:03:28.632Z,0.00
2017-12-11T02:04:28.609Z,0.00
2017-12-11T02:05:28.588Z,0.00
2017-12-11T02:06:28.557Z,0.00
2017-12-11T02:07:28.537Z,0.00
2017-12-11T02:08:28.509Z,0.00
2017-12-11T02:09:28.484Z,0.00
2017-12-11T02:10:28.463Z,0.00
2017-12-11T02:11:28.438Z,0.00
2017-12-11T02:12:28.414Z,0.00
2017-12-11T02:13:28.392Z,0.00
2017-12-11T02:14:28.367Z,0.00
2017-12-11T02:15:28.342Z,0.00
2017-12-11T02:16:28.321Z,0.00
2017-12-11T02:17:28.290Z,0.00
2017-12-11T02:18:28.259Z,0.00
2017-12-11T02:19:28.244Z,0.00
2017-12-11T02:20:28.213Z,0.00
2017-12-11T02:21:28.188Z,0.00
2017-12-11T02:22:28.163Z,0.00
2017-12-11T02:23:28.138Z,0.00
2017-12-11T02:24:28.111Z,0.00
2017-12-11T02:25:28.088Z,0.00
2017-12-11T02:26:28.063Z,0.00
2017-12-11T02:27:28.038Z,0.00
2017-12-11T02:28:28.017Z,0.00
2017-12-11T02:29:27.990Z,0.00
2017-12-11T02:30:28.017Z,0.00
2017-12-11T02:31:27.944Z,0.00
2017-12-11T02:32:27.917Z,0.00
2017-12-11T02:33:27.894Z,0.00
2017-12-11T02:34:27.871Z,0.00
2017-12-11T02:35:27.842Z,0.00
2017-12-11T02:36:27.825Z,0.00
2017-12-11T02:37:27.790Z,0.00
2017-12-11T02:38:27.768Z,0.00
2017-12-11T02:39:27.741Z,0.00
2017-12-11T02:40:27.719Z,0.00
2017-12-11T02:41:27.692Z,0.00
2017-12-11T02:42:27.663Z,0.00
2017-12-11T02:43:27.640Z,0.00
2017-12-11T02:44:27.622Z,0.00
2017-12-11T02:45:27.625Z,0.00
2017-12-11T02:46:27.576Z,0.00
2017-12-11T02:47:27.546Z,0.00
2017-12-11T02:48:27.525Z,0.00
2017-12-11T02:49:27.511Z,0.00
2017-12-11T02:50:27.468Z,0.00
2017-12-11T02:51:27.450Z,0.00
2017-12-11T02:52:27.423Z,0.00
2017-12-11T02:53:27.396Z,0.00
2017-12-11T02:54:27.370Z,0.00
2017-12-11T02:55:27.347Z,0.00
2017-12-11T02:56:27.321Z,0.00
2017-12-11T02:57:27.296Z,0.00
2017-12-11T02:58:27.271Z,0.00
2017-12-11T02:59:27.248Z,0.00
2017-12-11T03:00:27.227Z,0.00
2017-12-11T03:01:27.196Z,0.00
2017-12-11T03:02:27.185Z,0.00
2017-12-11T03:03:27.147Z,0.00
2017-12-11T03:04:27.129Z,0.00
2017-12-11T03:05:27.109Z,0.00
2017-12-11T03:06:27.070Z,0.00
2017-12-11T03:07:27.055Z,0.00
2017-12-11T03:08:27.025Z,0.00
2017-12-11T03:09:27.000Z,0.00
2017-12-11T03:10:26.975Z,0.00
2017-12-11T03:11:26.950Z,0.00
2017-12-11T03:12:26.929Z,0.00
2017-12-11T03:13:26.904Z,0.00
2017-12-11T03:14:26.875Z,0.00
2017-12-11T03:15:26.853Z,0.00
2017-12-11T03:16:26.827Z,0.00
2017-12-11T03:17:26.804Z,0.00
2017-12-11T03:18:26.776Z,0.00
2017-12-11T03:19:26.749Z,0.00
2017-12-11T03:20:26.756Z,0.00
2017-12-11T03:21:26.708Z,0.00
2017-12-11T03:22:26.686Z,0.00
2017-12-11T03:23:26.651Z,0.00
2017-12-11T03:24:26.644Z,0.00
2017-12-11T03:25:26.607Z,0.00
2017-12-11T03:26:26.581Z,0.00
2017-12-11T03:27:26.555Z,0.00
2017-12-11T03:28:26.527Z,0.00
2017-12-11T03:29:26.505Z,0.00
2017-12-11T03:30:26.478Z,0.00
2017-12-11T03:31:26.452Z,0.00
2017-12-11T03:32:26.441Z,0.00
2017-12-11T03:33:26.404Z,0.00
2017-12-11T03:34:26.399Z,0.00
2017-12-11T03:35:26.353Z,0.00
2017-12-11T03:36:26.332Z,0.00
2017-12-11T03:37:26.305Z,0.00
2017-12-11T03:38:26.284Z,0.00
2017-12-11T03:39:26.261Z,0.00
2017-12-11T03:40:26.230Z,0.00
2017-12-11T03:41:26.205Z,0.00
2017-12-11T03:42:26.213Z,0.00
2017-12-11T03:43:26.162Z,0.00
2017-12-11T03:44:26.130Z,0.00
2017-12-11T03:45:26.105Z,0.00
2017-12-11T03:46:26.082Z,0.00
2017-12-11T03:47:26.054Z,0.00
2017-12-11T03:48:26.032Z,0.00
2017-12-11T03:49:26.007Z,0.00
2017-12-11T03:50:25.990Z,0.00
2017-12-11T03:51:25.961Z,0.00
2017-12-11T03:52:25.942Z,0.00
2017-12-11T03:53:25.909Z,0.00
2017-12-11T03:54:25.898Z,0.00
2017-12-11T03:55:25.879Z,0.00
2017-12-11T03:56:25.836Z,0.00
2017-12-11T03:57:25.821Z,0.00
2017-12-11T03:58:25.790Z,0.00
2017-12-11T03:59:25.759Z,0.00
2017-12-11T04:00:25.734Z,0.00
2017-12-11T04:01:25.716Z,0.00
2017-12-11T04:02:25.686Z,0.00
2017-12-11T04:03:25.665Z,0.00
2017-12-11T04:04:25.636Z,0.00
2017-12-11T04:05:25.617Z,0.00
2017-12-11T04:06:25.586Z,0.00
2017-12-11T04:07:25.567Z,0.00
2017-12-11T04:08:25.558Z,0.00
2017-12-11T04:09:25.517Z,0.00
2017-12-11T04:10:25.489Z,0.00
2017-12-11T04:11:25.475Z,0.00
2017-12-11T04:12:25.438Z,0.00
2017-12-11T04:13:25.415Z,0.00
2017-12-11T04:14:25.394Z,0.00
2017-12-11T04:15:25.389Z,0.00
2017-12-11T04:16:25.346Z,0.00
2017-12-11T04:17:25.327Z,0.00
2017-12-11T04:18:25.292Z,0.00
2017-12-11T04:19:25.270Z,0.00
2017-12-11T04:20:25.268Z,0.00
2017-12-11T04:21:25.223Z,0.00
2017-12-11T04:22:25.236Z,0.00
2017-12-11T04:23:25.175Z,0.00
2017-12-11T04:24:25.162Z,0.00
2017-12-11T04:25:25.120Z,0.00
2017-12-11T04:26:25.100Z,0.00
2017-12-11T04:27:25.077Z,0.00
2017-12-11T04:28:25.054Z,0.00
2017-12-11T04:29:25.021Z,0.00
2017-12-11T04:30:24.999Z,0.00
2017-12-11T04:31:24.974Z,0.00
2017-12-11T04:32:24.946Z,0.00
2017-12-11T04:33:24.937Z,0.00
2017-12-11T04:34:24.898Z,0.00
2017-12-11T04:35:24.881Z,0.00
2017-12-11T04:36:24.849Z,0.00
2017-12-11T04:37:24.832Z,0.00
2017-12-11T04:38:24.802Z,0.00
2017-12-11T04:39:24.779Z,0.00
2017-12-11T04:40:24.755Z,0.00
2017-12-11T04:41:24.738Z,0.00
2017-12-11T04:42:24.700Z,0.00
2017-12-11T04:43:24.679Z,0.00
2017-12-11T04:44:24.654Z,0.00
2017-12-11T04:45:24.628Z,0.00
2017-12-11T04:46:24.618Z,0.00
2017-12-11T04:47:24.581Z,0.00
2017-12-11T04:48:24.554Z,0.00
2017-12-11T04:49:24.533Z,0.00
2017-12-11T04:50:24.514Z,0.00
2017-12-11T04:51:24.481Z,0.00
2017-12-11T04:52:24.455Z,0.00
2017-12-11T04:53:24.433Z,0.00
2017-12-11T04:54:24.414Z,0.00
2017-12-11T04:55:24.385Z,0.00
2017-12-11T04:56:24.358Z,0.00
2017-12-11T04:57:24.335Z,0.00
2017-12-11T04:58:24.351Z,0.00
2017-12-11T04:59:24.331Z,0.00
2017-12-11T05:00:24.262Z,0.00
2017-12-11T05:01:24.236Z,0.00
2017-12-11T05:02:24.223Z,0.00
2017-12-11T05:03:24.184Z,0.00
2017-12-11T05:04:24.168Z,0.00
2017-12-11T05:05:24.136Z,0.00
2017-12-11T05:06:24.126Z,0.00
2017-12-11T05:07:24.093Z,0.00
2017-12-11T05:08:24.064Z,0.00
2017-12-11T05:09:24.038Z,0.00
2017-12-11T05:10:24.030Z,0.00
2017-12-11T05:11:23.988Z,0.00
2017-12-11T05:12:23.973Z,0.00
2017-12-11T05:13:23.940Z,0.00
2017-12-11T05:14:23.917Z,0.00
2017-12-11T05:15:23.903Z,0.00
2017-12-11T05:16:23.867Z,0.00
2017-12-11T05:17:23.853Z,0.00
2017-12-11T05:18:23.822Z,0.00
2017-12-11T05:19:23.798Z,0.00
2017-12-11T05:20:23.785Z,0.00
2017-12-11T05:21:23.746Z,0.00
2017-12-11T05:22:23.733Z,0.00
2017-12-11T05:23:23.695Z,0.00
2017-12-11T05:24:47.253Z,0.00
2017-12-11T05:25:23.654Z,0.00
2017-12-11T05:26:23.624Z,0.00
2017-12-11T05:27:23.615Z,0.00
2017-12-11T05:28:23.582Z,0.00
2017-12-11T05:29:23.550Z,0.00
2017-12-11T05:30:23.527Z,0.00
2017-12-11T05:31:23.500Z,0.00
2017-12-11T05:32:23.474Z,0.00
2017-12-11T05:33:23.466Z,0.00
2017-12-11T05:34:23.425Z,0.00
2017-12-11T05:35:23.406Z,0.00
2017-12-11T05:36:23.381Z,0.00
2017-12-11T05:37:23.358Z,0.00
2017-12-11T05:38:23.383Z,0.00
2017-12-11T05:39:23.304Z,0.00
2017-12-11T05:40:23.282Z,0.00
2017-12-11T05:41:23.257Z,0.00
2017-12-11T05:42:23.235Z,0.00
2017-12-11T05:43:23.206Z,0.00
2017-12-11T05:44:23.185Z,0.00
2017-12-11T05:45:23.158Z,0.00
2017-12-11T05:46:23.147Z,0.00
2017-12-11T05:47:23.108Z,0.00
2017-12-11T05:48:23.091Z,0.00
2017-12-11T05:49:23.062Z,0.00
2017-12-11T05:50:23.039Z,0.00
2017-12-11T05:51:23.016Z,0.00
2017-12-11T05:52:22.984Z,0.00
2017-12-11T05:53:22.965Z,0.00
2017-12-11T05:54:22.941Z,0.00
2017-12-11T05:55:22.912Z,0.00
2017-12-11T05:56:22.889Z,0.00
2017-12-11T05:57:22.862Z,0.00
2017-12-11T05:58:22.837Z,0.00
2017-12-11T05:59:22.880Z,0.00
2017-12-11T06:00:22.792Z,0.00
2017-12-11T06:01:22.764Z,0.00
2017-12-11T06:02:22.749Z,0.00
2017-12-11T06:03:22.722Z,0.00
2017-12-11T06:04:22.699Z,0.00
2017-12-11T06:05:22.668Z,0.00
2017-12-11T06:06:22.644Z,0.00
2017-12-11T06:07:22.620Z,0.00
2017-12-11T06:08:22.591Z,0.00
2017-12-11T06:09:22.566Z,0.00
2017-12-11T06:10:22.543Z,0.00
2017-12-11T06:11:22.524Z,0.00
2017-12-11T06:12:22.498Z,0.00
2017-12-11T06:13:22.486Z,0.00
2017-12-11T06:14:22.465Z,0.00
2017-12-11T06:15:22.468Z,0.00
2017-12-11T06:16:22.403Z,0.00
2017-12-11T06:17:22.384Z,0.00
2017-12-11T06:18:22.350Z,0.00
2017-12-11T06:19:22.322Z,0.00
2017-12-11T06:20:22.304Z,0.00
2017-12-11T06:21:22.274Z,0.00
2017-12-11T06:22:22.248Z,0.00
2017-12-11T06:23:22.226Z,0.00
2017-12-11T06:24:22.202Z,0.00
2017-12-11T06:26:56.778Z,0.00
2017-12-11T06:27:56.735Z,0.00
2017-12-11T06:29:50.111Z,0.00
2017-12-11T06:30:50.059Z,0.00
2017-12-11T06:32:43.428Z,0.00
2017-12-11T06:33:43.387Z,0.00
2017-12-11T06:35:36.778Z,0.00
2017-12-11T06:36:36.731Z,0.00
2017-12-11T06:38:32.598Z,0.00
2017-12-11T06:39:32.553Z,0.00
2017-12-11T06:41:26.746Z,0.00
2017-12-11T06:42:26.702Z,0.00
2017-12-11T06:44:20.082Z,4.00
2017-12-11T06:45:20.039Z,4.00
2017-12-11T06:47:15.890Z,4.00
2017-12-11T06:48:15.844Z,4.00
2017-12-11T06:50:11.703Z,4.00
2017-12-11T06:51:11.660Z,4.00
2017-12-11T06:53:05.046Z,8.00
2017-12-11T06:54:05.007Z,8.00
2017-12-11T06:55:58.387Z,8.00
2017-12-11T06:56:58.338Z,8.00
2017-12-11T06:58:51.695Z,12.00
2017-12-11T06:59:51.688Z,12.00
2017-12-11T07:01:45.105Z,16.00
2017-12-11T07:02:45.070Z,16.00
2017-12-11T07:04:38.457Z,16.00
2017-12-11T07:05:38.430Z,20.00
2017-12-11T07:07:34.290Z,20.00
2017-12-11T07:08:34.255Z,24.00
2017-12-11T07:10:27.824Z,24.00
2017-12-11T07:11:27.771Z,24.00
2017-12-11T07:13:23.672Z,28.00
2017-12-11T07:14:23.647Z,28.00
2017-12-11T07:16:17.016Z,32.00
2017-12-11T07:17:17.085Z,36.00
2017-12-11T07:19:10.342Z,40.00
2017-12-11T07:20:10.323Z,40.00
2017-12-11T07:22:03.694Z,48.00
2017-12-11T07:23:03.683Z,48.00
2017-12-11T07:24:56.994Z,60.00
2017-12-11T07:25:56.948Z,64.00
2017-12-11T07:27:50.342Z,64.00
2017-12-11T07:28:50.265Z,64.00
2017-12-11T07:30:43.683Z,64.00
2017-12-11T07:31:43.849Z,64.00
2017-12-11T07:33:37.996Z,60.00
2017-12-11T07:34:37.958Z,52.00
2017-12-11T07:36:33.818Z,52.00
2017-12-11T07:37:33.775Z,48.00
2017-12-11T07:39:29.672Z,52.00
2017-12-11T07:40:29.600Z,56.00
2017-12-11T07:42:22.950Z,64.00
2017-12-11T07:43:22.909Z,64.00
2017-12-11T07:45:16.268Z,72.00
2017-12-11T07:46:16.227Z,72.00
2017-12-11T07:48:09.589Z,80.00
2017-12-11T07:49:09.548Z,80.00
2017-12-11T07:51:02.898Z,84.00
2017-12-11T07:52:02.858Z,88.00
2017-12-11T07:53:58.745Z,88.00
2017-12-11T07:54:58.682Z,88.00
2017-12-11T07:56:55.431Z,96.00
2017-12-11T07:57:55.379Z,96.00
2017-12-11T07:59:48.782Z,100.00
2017-12-11T08:00:48.693Z,100.00
2017-12-11T08:02:42.066Z,108.00
2017-12-11T08:03:42.017Z,112.00
2017-12-11T08:05:36.411Z,112.00
2017-12-11T08:06:36.342Z,112.00
2017-12-11T08:08:29.715Z,108.00
2017-12-11T08:09:29.697Z,108.00
2017-12-11T08:11:25.540Z,100.00
2017-12-11T08:12:25.507Z,100.00
2017-12-11T08:14:18.870Z,100.00
2017-12-11T08:15:18.833Z,100.00
2017-12-11T08:17:14.699Z,100.00
2017-12-11T08:18:14.650Z,104.00
2017-12-11T08:20:10.552Z,104.00
2017-12-11T08:21:10.504Z,104.00
2017-12-11T08:23:03.863Z,104.00
2017-12-11T08:24:03.816Z,108.00
2017-12-11T08:25:57.181Z,112.00
2017-12-11T08:26:57.136Z,108.00
2017-12-11T08:28:53.011Z,112.00
2017-12-11T08:29:52.973Z,112.00
2017-12-11T08:31:48.822Z,116.00
2017-12-11T08:32:48.807Z,116.00
2017-12-11T08:34:42.141Z,116.00
2017-12-11T08:35:42.098Z,120.00
2017-12-11T08:37:36.299Z,128.00
2017-12-11T08:38:36.251Z,136.00
2017-12-11T08:40:29.653Z,136.00
2017-12-11T08:41:29.611Z,136.00
2017-12-11T08:43:22.990Z,140.00
2017-12-11T08:44:22.931Z,140.00
2017-12-11T08:46:16.300Z,136.00
2017-12-11T08:47:16.243Z,132.00
2017-12-11T08:49:09.645Z,128.00
2017-12-11T08:50:09.599Z,128.00
2017-12-11T08:52:02.990Z,128.00
2017-12-11T08:53:02.914Z,128.00
2017-12-11T08:54:56.282Z,128.00
2017-12-11T08:55:56.265Z,128.00
2017-12-11T08:57:49.602Z,144.00
2017-12-11T08:58:49.564Z,148.00
2017-12-11T09:00:42.917Z,144.00
2017-12-11T09:01:42.889Z,140.00
2017-12-11T09:03:38.840Z,152.00
2017-12-11T09:04:38.823Z,160.00
2017-12-11T09:06:32.180Z,180.00
2017-12-11T09:07:32.129Z,188.00
2017-12-11T09:09:25.518Z,204.00
2017-12-11T09:10:25.459Z,200.00
2017-12-11T09:12:18.908Z,200.00
2017-12-11T09:13:18.780Z,200.00
2017-12-11T09:15:12.164Z,196.00
2017-12-11T09:16:12.115Z,200.00
2017-12-11T09:18:05.506Z,200.00
2017-12-11T09:19:05.447Z,200.00
2017-12-11T09:20:59.698Z,192.00
2017-12-11T09:21:59.651Z,192.00
2017-12-11T09:23:53.106Z,196.00
2017-12-11T09:24:52.961Z,200.00
2017-12-11T09:26:48.820Z,208.00
2017-12-11T09:27:48.783Z,208.00
2017-12-11T09:29:44.669Z,200.00
2017-12-11T09:30:44.611Z,196.00
2017-12-11T09:32:40.489Z,184.00
2017-12-11T09:33:40.434Z,184.00
2017-12-11T09:35:36.308Z,180.00
2017-12-11T09:36:36.265Z,180.00
2017-12-11T09:38:32.178Z,180.00
2017-12-11T09:39:32.087Z,180.00
2017-12-11T09:41:27.976Z,180.00
2017-12-11T09:42:27.919Z,180.00
2017-12-11T09:44:23.897Z,172.00
2017-12-11T09:45:23.806Z,172.00
2017-12-11T09:47:19.675Z,172.00
2017-12-11T09:48:19.632Z,168.00
2017-12-11T09:50:15.510Z,164.00
2017-12-11T09:51:15.471Z,164.00
2017-12-11T09:53:11.346Z,172.00
2017-12-11T09:54:11.295Z,172.00
2017-12-11T09:56:07.178Z,172.00
2017-12-11T09:57:07.121Z,172.00
2017-12-11T09:59:03.005Z,176.00
2017-12-11T10:00:03.028Z,180.00
2017-12-11T10:01:59.011Z,184.00
2017-12-11T10:02:58.794Z,184.00
2017-12-11T10:04:52.154Z,192.00
2017-12-11T10:05:52.110Z,192.00
2017-12-11T10:07:45.659Z,180.00
2017-12-11T10:08:45.622Z,176.00
2017-12-11T10:10:41.540Z,176.00
2017-12-11T10:11:41.490Z,172.00
2017-12-11T10:13:34.859Z,176.00
2017-12-11T10:14:34.816Z,176.00
2017-12-11T10:16:30.694Z,180.00
2017-12-11T10:17:30.650Z,184.00
2017-12-11T10:19:24.034Z,192.00
2017-12-11T10:20:23.986Z,208.00
2017-12-11T10:22:19.917Z,212.00
2017-12-11T10:23:19.853Z,212.00
2017-12-11T10:25:13.221Z,216.00
2017-12-11T10:26:13.197Z,220.00
2017-12-11T10:28:09.107Z,232.00
2017-12-11T10:29:09.061Z,240.00
2017-12-11T10:31:02.492Z,248.00
2017-12-11T10:32:02.427Z,248.00
2017-12-11T10:33:55.776Z,252.00
2017-12-11T10:34:55.732Z,256.00
2017-12-11T10:36:49.103Z,252.00
2017-12-11T10:37:49.063Z,256.00
2017-12-11T10:39:42.424Z,264.00
2017-12-11T10:40:42.372Z,256.00
2017-12-11T10:42:35.785Z,252.00
2017-12-11T10:43:35.702Z,248.00
2017-12-11T10:45:29.058Z,252.00
2017-12-11T10:46:29.016Z,252.00
2017-12-11T10:48:22.386Z,248.00
2017-12-11T10:49:22.350Z,248.00
2017-12-11T10:51:15.704Z,248.00
2017-12-11T10:52:15.661Z,240.00
2017-12-11T10:54:09.911Z,228.00
2017-12-11T10:55:09.860Z,228.00
2017-12-11T10:57:03.326Z,220.00
2017-12-11T10:58:03.266Z,232.00
2017-12-11T10:59:59.143Z,256.00
2017-12-11T11:00:59.105Z,280.00
2017-12-11T11:02:52.463Z,312.00
2017-12-11T11:03:52.418Z,328.00
2017-12-11T11:05:48.654Z,352.00
2017-12-11T11:06:48.446Z,360.00
2017-12-11T11:08:41.824Z,388.00
2017-12-11T11:09:41.777Z,392.00
2017-12-11T11:11:35.170Z,392.00
2017-12-11T11:12:35.131Z,396.00
2017-12-11T11:14:30.975Z,380.00
2017-12-11T11:15:31.512Z,384.00
2017-12-11T11:17:26.798Z,408.00
2017-12-11T11:18:26.758Z,416.00
2017-12-11T11:20:22.630Z,400.00
2017-12-11T11:21:22.583Z,396.00
2017-12-11T11:23:18.456Z,412.00
2017-12-11T11:24:18.427Z,424.00
2017-12-11T11:26:11.827Z,436.00
2017-12-11T11:27:11.757Z,436.00
2017-12-11T11:29:07.628Z,448.00
2017-12-11T11:30:07.582Z,440.00
2017-12-11T11:32:00.989Z,492.00
2017-12-11T11:33:00.919Z,512.00
2017-12-11T11:34:54.305Z,528.00
2017-12-11T11:35:54.256Z,532.00
2017-12-11T11:37:47.619Z,540.00
2017-12-11T11:38:47.575Z,544.00
2017-12-11T11:40:40.961Z,536.00
2017-12-11T11:41:40.909Z,520.00
2017-12-11T11:43:35.075Z,492.00
2017-12-11T11:44:35.034Z,464.00
2017-12-11T11:46:28.427Z,436.00
2017-12-11T11:47:28.384Z,416.00
2017-12-11T11:49:21.778Z,372.00
2017-12-11T11:50:21.729Z,372.00
2017-12-11T11:52:15.105Z,356.00
2017-12-11T11:53:15.054Z,348.00
2017-12-11T11:55:10.937Z,368.00
2017-12-11T11:56:10.888Z,368.00
2017-12-11T11:58:05.120Z,352.00
2017-12-11T11:59:05.070Z,368.00
2017-12-11T12:00:58.453Z,388.00
2017-12-11T12:01:58.414Z,396.00
2017-12-11T12:03:52.853Z,384.00
2017-12-11T12:04:52.759Z,376.00
2017-12-11T12:06:46.133Z,404.00
2017-12-11T12:07:46.090Z,432.00
2017-12-11T12:09:39.463Z,420.00
2017-12-11T12:10:39.413Z,408.00
2017-12-11T12:12:35.280Z,384.00
2017-12-11T12:13:35.233Z,388.00
2017-12-11T12:15:28.614Z,376.00
2017-12-11T12:16:28.563Z,368.00
2017-12-11T12:18:21.929Z,376.00
2017-12-11T12:19:21.893Z,388.00
2017-12-11T12:21:15.252Z,376.00
2017-12-11T12:22:15.219Z,372.00
2017-12-11T12:24:08.572Z,376.00
2017-12-11T12:25:08.525Z,352.00
2017-12-11T12:27:01.889Z,312.00
2017-12-11T12:28:01.859Z,320.00
2017-12-11T12:29:55.254Z,376.00
2017-12-11T12:30:55.161Z,400.00
2017-12-11T12:32:49.620Z,340.00
2017-12-11T12:33:49.337Z,300.00
2017-12-11T12:35:42.696Z,276.00
2017-12-11T12:36:42.658Z,252.00
2017-12-11T12:38:36.009Z,204.00
2017-12-11T12:39:35.997Z,204.00
2017-12-11T12:41:31.842Z,216.00
2017-12-11T12:42:31.807Z,208.00
2017-12-11T12:44:26.002Z,212.00
2017-12-11T12:45:25.979Z,228.00
2017-12-11T12:47:19.364Z,268.00
2017-12-11T12:48:19.335Z,280.00
2017-12-11T12:50:12.696Z,276.00
2017-12-11T12:51:12.655Z,280.00
2017-12-11T12:53:06.010Z,288.00
2017-12-11T12:54:05.971Z,284.00
2017-12-11T12:55:59.430Z,248.00
2017-12-11T12:56:59.389Z,240.00
2017-12-11T12:58:52.742Z,240.00
2017-12-11T12:59:52.706Z,244.00
2017-12-11T13:01:46.091Z,252.00
2017-12-11T13:02:46.038Z,260.00
2017-12-11T13:04:41.907Z,280.00
2017-12-11T13:05:41.882Z,256.00
2017-12-11T13:07:35.245Z,200.00
2017-12-11T13:08:35.198Z,192.00
2017-12-11T13:10:28.563Z,208.00
2017-12-11T13:11:28.533Z,208.00
2017-12-11T13:13:21.875Z,188.00
2017-12-11T13:14:21.838Z,168.00
2017-12-11T13:16:15.215Z,136.00
2017-12-11T13:17:15.163Z,148.00
2017-12-11T13:19:09.419Z,136.00
2017-12-11T13:20:09.358Z,132.00
2017-12-11T13:22:05.427Z,164.00
2017-12-11T13:23:05.498Z,196.00
2017-12-11T13:25:01.395Z,208.00
2017-12-11T13:26:01.225Z,204.00
2017-12-11T13:27:54.608Z,204.00
2017-12-11T13:28:54.565Z,200.00
2017-12-11T13:30:48.047Z,176.00
2017-12-11T13:31:48.007Z,168.00
2017-12-11T13:33:41.398Z,152.00
2017-12-11T13:34:41.380Z,148.00
2017-12-11T13:36:34.893Z,148.00
2017-12-11T13:37:34.844Z,144.00
2017-12-11T13:39:30.742Z,132.00
2017-12-11T13:40:30.709Z,128.00
2017-12-11T13:42:26.569Z,124.00
2017-12-11T13:43:26.523Z,124.00
2017-12-11T13:45:19.905Z,120.00
2017-12-11T13:46:19.857Z,128.00
2017-12-11T13:48:13.201Z,132.00
2017-12-11T13:49:13.169Z,136.00
2017-12-11T13:51:06.527Z,128.00
2017-12-11T13:52:06.514Z,124.00
2017-12-11T13:53:59.844Z,116.00
2017-12-11T13:54:59.795Z,108.00
2017-12-11T13:56:53.175Z,100.00
2017-12-11T13:57:53.123Z,100.00
2017-12-11T13:59:46.522Z,100.00
2017-12-11T14:00:46.437Z,100.00
2017-12-11T14:02:42.355Z,96.00
2017-12-11T14:03:42.340Z,96.00
2017-12-11T14:05:35.679Z,96.00
2017-12-11T14:06:35.629Z,96.00
2017-12-11T14:08:31.504Z,88.00
2017-12-11T14:09:31.459Z,88.00
2017-12-11T14:11:24.817Z,84.00
2017-12-11T14:12:24.774Z,80.00
2017-12-11T14:14:18.999Z,84.00
2017-12-11T14:15:18.950Z,80.00
2017-12-11T14:17:12.309Z,76.00
2017-12-11T14:18:12.268Z,76.00
2017-12-11T14:20:05.633Z,80.00
2017-12-11T14:21:05.582Z,80.00
2017-12-11T14:22:58.950Z,80.00
2017-12-11T14:23:58.918Z,76.00
2017-12-11T14:25:52.283Z,68.00
2017-12-11T14:26:52.232Z,60.00
2017-12-11T14:28:46.411Z,52.00
2017-12-11T14:29:46.384Z,48.00
2017-12-11T14:31:39.752Z,48.00
2017-12-11T14:32:39.723Z,48.00
2017-12-11T14:34:33.069Z,48.00
2017-12-11T14:35:33.020Z,44.00
2017-12-11T14:37:26.377Z,40.00
2017-12-11T14:38:26.380Z,40.00
2017-12-11T14:40:19.703Z,40.00
2017-12-11T14:41:19.657Z,36.00
2017-12-11T14:43:13.029Z,28.00
2017-12-11T14:44:12.980Z,24.00
2017-12-11T14:46:06.373Z,24.00
2017-12-11T14:47:06.332Z,24.00
2017-12-11T14:48:59.696Z,20.00
2017-12-11T14:49:59.642Z,20.00
2017-12-11T14:51:52.999Z,16.00
2017-12-11T14:52:52.960Z,16.00
2017-12-11T14:54:46.341Z,16.00
2017-12-11T14:55:46.296Z,16.00
2017-12-11T14:57:39.662Z,12.00
2017-12-11T14:58:39.606Z,12.00
2017-12-11T15:00:35.480Z,8.00
2017-12-11T15:01:35.432Z,12.00
2017-12-11T15:03:28.811Z,8.00
2017-12-11T15:04:28.775Z,8.00
2017-12-11T15:06:22.127Z,4.00
2017-12-11T15:07:22.095Z,8.00
2017-12-11T15:09:15.451Z,4.00
2017-12-11T15:10:15.404Z,4.00
2017-12-11T15:12:08.774Z,4.00
2017-12-11T15:13:08.729Z,0.00
2017-12-11T15:15:02.908Z,4.00
2017-12-11T15:16:02.862Z,4.00
2017-12-11T15:17:56.235Z,0.00
2017-12-11T15:18:56.203Z,0.00
2017-12-11T15:20:49.584Z,0.00
2017-12-11T15:21:49.506Z,0.00
2017-12-11T15:23:42.881Z,0.00
2017-12-11T15:24:42.844Z,0.00
2017-12-11T15:26:36.244Z,0.00
2017-12-11T15:27:36.203Z,0.00
2017-12-11T15:29:29.620Z,0.00
2017-12-11T15:30:29.529Z,0.00
2017-12-11T15:32:22.926Z,0.00
2017-12-11T15:33:22.887Z,0.00
2017-12-11T15:35:16.243Z,0.00
2017-12-11T15:36:16.196Z,0.00
2017-12-11T15:38:09.569Z,0.00
2017-12-11T15:39:09.522Z,0.00
2017-12-11T15:41:02.908Z,0.00
2017-12-11T15:42:02.874Z,0.00
2017-12-11T15:43:56.254Z,0.00
2017-12-11T15:44:56.209Z,0.00
2017-12-11T15:46:49.648Z,0.00
2017-12-11T15:47:49.586Z,0.00
2017-12-11T15:49:42.932Z,0.00
2017-12-11T15:50:42.894Z,0.00
2017-12-11T15:52:36.301Z,0.00
2017-12-11T15:53:36.261Z,0.00
2017-12-11T15:55:30.499Z,0.00
2017-12-11T15:56:30.468Z,0.00
2017-12-11T15:58:24.734Z,0.00
2017-12-11T15:59:24.680Z,0.00
2017-12-11T16:01:18.023Z,0.00
2017-12-11T16:02:17.972Z,0.00
2017-12-11T16:04:11.331Z,0.00
2017-12-11T16:05:11.300Z,0.00
2017-12-11T16:07:07.166Z,0.00
2017-12-11T16:08:07.129Z,0.00
2017-12-11T16:10:00.504Z,0.00
2017-12-11T16:11:00.479Z,0.00
2017-12-11T16:12:53.858Z,0.00
2017-12-11T16:13:53.765Z,0.00
2017-12-11T16:15:47.131Z,0.00
2017-12-11T16:16:47.094Z,0.00
2017-12-11T16:18:40.472Z,0.00
2017-12-11T16:19:40.421Z,0.00
2017-12-11T16:21:33.787Z,0.00
2017-12-11T16:22:33.762Z,0.00